Metar Cercanos

 

LEPA - Palma De Mallorc, Spain
Distance from station: ONO 38km
Actualización: 14/08/2018 17:00
Muy nuboso
Muy nuboso
 Viento del E
Viento: E 19 km/h
Temperatura: 30°C
Indice Calor: 32°C
Rocío: 20°C
Humedad: 55%
Barómetro: 1016 hPa
Clouds: Muy nuboso
Visibility: 10 km
Cloud details: Few Clouds 762 m
Muy nuboso 1280 m
2018/08/14 15:00 LEPA 141500Z 08010KT 050V140 9999 FEW025 BKN042 30/20 Q1016 TEMPO FEW020TCU
LEMH - Mahon/Menorca Is, Spain
Distance from station: ENE 105km
Actualización: 14/08/2018 17:00
Few Clouds
Few Clouds
 Viento del NE
Viento: NE 24 km/h
Temperatura: 27°C
Indice Calor: 28°C
Rocío: 18°C
Humedad: 58%
Barómetro: 1017 hPa
Clouds: Few Clouds
Visibility: 10 km
Cloud details: Few Clouds 914 m
2018/08/14 15:00 LEMH 141500Z 05013KT 360V090 9999 FEW030 27/18 Q1017
 
LEIB - Ibiza/Es Codola, Spain
Distance from station: OSO 165km
Actualización: 14/08/2018 17:00
Parcialmente nuboso
Parcialmente nuboso
 Viento del E
Viento: E 17 km/h
Temperatura: 30°C
Indice Calor: 35°C
Rocío: 24°C
Humedad: 70%
Barómetro: 1015 hPa
Clouds: Parcialmente nuboso
Visibility: 10 km
Cloud details: Few Clouds 914 m
Parcialmente nuboso 1067 m
2018/08/14 15:00 LEIB 141500Z 08009KT 060V120 9999 FEW030 SCT035 30/24 Q1015 NOSIG
LEBL - Barcelona Airpor, Spain
Distance from station: NNO 225km
Actualización: 14/08/2018 17:00
Few Clouds
Few Clouds
 Viento del S
Viento: S 22 km/h
Temperatura: 27°C
Indice Calor: 29°C
Rocío: 21°C
Humedad: 70%
Barómetro: 1016 hPa
Clouds: Few Clouds
Visibility: 10 km
Cloud details: Few Clouds 610 m
2018/08/14 15:00 LEBL 141500Z 19012KT 160V220 9999 FEW020 27/21 Q1016 NOSIG
 
LEVC - Valencia (civ/Mi, Spain
Distance from station: NO 188km
Actualización: 14/08/2018 17:00
Few Clouds
Few Clouds
 Viento del E
Viento: E 19 km/h
Temperatura: 30°C
Indice Calor: 31°C
Rocío: 18°C
Humedad: 49%
Barómetro: 1016 hPa
Clouds: Few Clouds
Visibility: 10 km
Cloud details: Few Clouds 914 m
2018/08/14 15:00 LEVC 141500Z 10010KT 070V140 9999 FEW030 30/18 Q1016 NOSIG
LEGE - Gerona/Costa Bra, Spain
Distance from station: N 276km
Actualización: 14/08/2018 17:00
Parcialmente nuboso
Parcialmente nuboso
 Viento del SSO
Viento: SSO 17 km/h
Temperatura: 28°C
Indice Calor: 28°C
Rocío: 17°C
Humedad: 51%
Barómetro: 1016 hPa
Clouds: Parcialmente nuboso
Visibility: 10 km
Cloud details: Parcialmente nuboso 1524 m
2018/08/14 15:00 LEGE 141500Z 20009KT 150V240 9999 SCT050 28/17 Q1016
 
LEAL - Alicante/El Alte, Spain
Distance from station: OSO 344km
Actualización: 14/08/2018 17:00
Few Clouds
Few Clouds
 Viento del E
Viento: E 28 km/h
Temperatura: 30°C
Indice Calor: 34°C
Rocío: 23°C
Humedad: 66%
Barómetro: 1015 hPa
Clouds: Few Clouds
Visibility: 10 km
Cloud details: Few Clouds 762 m
2018/08/14 15:00 LEAL 141500Z 08015KT 9999 FEW025CB 30/23 Q1015 NOSIG
LEAM - Almeria Airport, Spain
Distance from station: SSO 56km
Actualización: 14/08/2018 17:00
Despejado
Despejado
 Viento del SO
Viento: SO 13 km/h
Temperatura: 28°C
Indice Calor: 32°C
Rocío: 24°C
Humedad: 79%
Barómetro: 1014 hPa
Resumen: Despejado
Visibility: greater than 10 km
2018/08/14 15:00 LEAM 141500Z 22007KT 180V250 CAVOK 28/24 Q1014
 
LEZG - Zaragoza (mil/Ci, Spain
Distance from station: NO 431km
Actualización: 14/08/2018 17:00
Few Clouds
Few Clouds
 Viento del NO
Viento: NO 41 km/h
Temperatura: 27°C
Rocío: 12°C
Humedad: 39%
Barómetro: 1018 hPa
Clouds: Few Clouds
Visibility: 10 km
Cloud details: Few Clouds 1524 m
2018/08/14 15:00 LEZG 141500Z 31022KT 280V340 9999 FEW050 27/12 Q1018
LEMD - Madrid/Barajas, Spain
Distance from station: ONO 234km
Actualización: 14/08/2018 17:00
Despejado
Despejado
 Viento del N
Viento: N 7 km/h
Temperatura: 34°C
Rocío: 10°C
Humedad: 23%
Barómetro: 1017 hPa
Resumen: Despejado
Visibility: greater than 10 km
2018/08/14 15:00 LEMD 141500Z 01004KT CAVOK 34/10 Q1017 NOSIG
 
LEGR - Granada Airport, Spain
Distance from station: OSO 62km
Actualización: 14/08/2018 17:00
Few Clouds
Few Clouds
 Viento del ONO
Viento: ONO 15 km/h
Temperatura: 36°C
Rocío: 6°C
Humedad: 16%
Barómetro: 1016 hPa
Clouds: Few Clouds
Visibility: 10 km
Cloud details: Few Clouds 1829 m
2018/08/14 15:00 LEGR 141500Z 29008KT 250V020 9999 FEW060 36/06 Q1016
LEMG - Malaga (civ/Mil), Spain
Distance from station: OSO 227km
Actualización: 14/08/2018 17:00
Few Clouds
Few Clouds
 Viento del E
Viento: E 24 km/h
Temperatura: 29°C
Indice Calor: 29°C
Rocío: 18°C
Humedad: 51%
Barómetro: 1014 hPa
Clouds: Few Clouds
Visibility: 10 km
Cloud details: Few Clouds 1067 m
2018/08/14 15:00 LEMG 141500Z 10013KT 9999 FEW035 29/18 Q1014 NOSIG
 
LEZL - Sevilla (civ/Mil, Spain
Distance from station: S 318km
Actualización: 14/08/2018 17:00
Despejado
Despejado
 Viento del SO
Viento: SO 15 km/h
Temperatura: 34°C
Rocío: 15°C
Humedad: 32%
Barómetro: 1015 hPa
Resumen: Despejado
Visibility: greater than 10 km
2018/08/14 15:00 LEZL 141500Z 22008KT 180V260 CAVOK 34/15 Q1015 NOSIG
LEVT - Vitoria, Spain
Distance from station: NO 226km
Actualización: 14/08/2018 17:00
Muy nuboso
Muy nuboso
 Viento del NNE
Viento: NNE 24 km/h
Temperatura: 21°C
Rocío: 13°C
Humedad: 60%
Barómetro: 1023 hPa
Clouds: Muy nuboso
Visibility: 10 km
Cloud details: Parcialmente nuboso 762 m
Muy nuboso 1372 m
2018/08/14 15:00 LEVT 141500Z 02013KT 340V060 9999 SCT025 BKN045 21/13 Q1023
 
LEBB - Bilbao/Sondica, Spain
Distance from station: NNO 235km
Actualización: 14/08/2018 17:00
Muy nuboso
Muy nuboso
 Viento del N
Viento: N 13 km/h
Temperatura: 24°C
Rocío: 16°C
Humedad: 61%
Barómetro: 1023 hPa
Clouds: Muy nuboso
Visibility: 10 km
Cloud details: Few Clouds 914 m
Parcialmente nuboso 1372 m
Muy nuboso 1676 m
2018/08/14 15:00 LEBB 141500Z 01007KT 330V060 9999 FEW030 SCT045 BKN055 24/16 Q1023 NOSIG
LESO - San Sebastian/Fu, Spain
Distance from station: N 231km
Actualización: 14/08/2018 17:00
Muy nuboso
Muy nuboso
 Viento del NNO
Viento: NNO 11 km/h
Temperatura: 24°C
Rocío: 17°C
Humedad: 65%
Barómetro: 1022 hPa
Clouds: Muy nuboso
Visibility: 10 km
Cloud details: Parcialmente nuboso 853 m
Muy nuboso 1402 m
2018/08/14 15:00 LESO 141500Z 34006KT 280V050 9999 SCT028 BKN046 24/17 Q1022
 
LEVD - Valladolid(Mil/C, Spain
Distance from station: ONO 239km
Actualización: 14/08/2018 17:00
Despejado
Despejado
 Viento del ENE
Viento: ENE 20 km/h
Temperatura: 26°C
Rocío: 8°C
Humedad: 32%
Barómetro: 1021 hPa
Resumen: Despejado
Visibility: greater than 10 km
2018/08/14 15:00 LEVD 141500Z 07011KT 030V120 CAVOK 26/08 Q1021
LESA - Salamanca (civ/M, Spain
Distance from station: ONO 349km
Actualización: 14/08/2018 17:00
Despejado
Despejado
 Viento del ENE
Viento: ENE 13 km/h
Temperatura: 29°C
Rocío: 8°C
Humedad: 27%
Barómetro: 1020 hPa
Resumen: Despejado
Visibility: greater than 10 km
2018/08/14 15:00 LESA 141500Z 07007KT 030V110 CAVOK 29/08 Q1020
 
LEXJ - Santander/Paraya, Spain
Distance from station: NNO 247km
Actualización: 14/08/2018 17:00
Muy nuboso
Muy nuboso
 Viento del NE
Viento: NE 9 km/h
Temperatura: 23°C
Rocío: 17°C
Humedad: 69%
Barómetro: 1023 hPa
Clouds: Muy nuboso
Visibility: 10 km
Cloud details: Muy nuboso 914 m
2018/08/14 15:00 LEXJ 141500Z 05005KT 360V110 9999 BKN030 23/17 Q1023
LEAS - Asturias/Aviles, Spain
Distance from station: NO 214km
Actualización: 14/08/2018 17:00
Parcialmente nuboso
Parcialmente nuboso
 Viento del ENE
Viento: ENE 13 km/h
Temperatura: 22°C
Rocío: 17°C
Humedad: 73%
Barómetro: 1022 hPa
Clouds: Parcialmente nuboso
Visibility: 10 km
Cloud details: Parcialmente nuboso 823 m
2018/08/14 15:00 LEAS 141500Z 06007KT 350V110 9999 SCT027 22/17 Q1022 NOSIG
 
LECO - La Coruna/Alvedr, Spain
Distance from station: ONO 222km
Actualización: 14/08/2018 17:00
Despejado
Despejado
 Viento del N
Viento: N 17 km/h
Temperatura: 25°C
Rocío: 18°C
Humedad: 65%
Barómetro: 1020 hPa
Resumen: Despejado
Visibility: greater than 10 km
2018/08/14 15:00 LECO 141500Z 35009KT 300V050 CAVOK 25/18 Q1020 NOSIG
LEVX - Vigo/Peinador, Spain
Distance from station: O 214km
Actualización: 14/08/2018 17:00
Despejado
Despejado
 Viento del O
Viento: O 11 km/h
Temperatura: 32°C
Indice Calor: 33°C
Rocío: 17°C
Humedad: 41%
Barómetro: 1018 hPa
Resumen: Despejado
Visibility: greater than 10 km
2018/08/14 15:00 LEVX 141500Z 27006KT 210V330 CAVOK 32/17 Q1018 NOSIG